sensor_id;sensor_type;location;lat;lon;timestamp;pressure;altitude;pressure_sealevel;temperature;humidity
4590;BME280;2307;48.448;9.216;2023-12-20T00:02:06;95448.22;;;7.32;100.00
4590;BME280;2307;48.448;9.216;2023-12-20T00:04:32;95437.84;;;7.37;100.00
4590;BME280;2307;48.448;9.216;2023-12-20T00:06:58;95426.34;;;7.38;100.00
4590;BME280;2307;48.448;9.216;2023-12-20T00:09:25;95419.03;;;7.40;100.00
4590;BME280;2307;48.448;9.216;2023-12-20T00:11:51;95412.97;;;7.40;100.00
4590;BME280;2307;48.448;9.216;2023-12-20T00:14:17;95401.59;;;7.46;100.00
4590;BME280;2307;48.448;9.216;2023-12-20T00:16:45;95395.53;;;7.45;100.00
4590;BME280;2307;48.448;9.216;2023-12-20T00:19:12;95397.72;;;7.48;100.00
4590;BME280;2307;48.448;9.216;2023-12-20T00:21:38;95388.84;;;7.49;100.00
4590;BME280;2307;48.448;9.216;2023-12-20T00:24:04;95407.22;;;7.49;100.00
4590;BME280;2307;48.448;9.216;2023-12-20T00:26:31;95385.63;;;7.47;100.00
4590;BME280;2307;48.448;9.216;2023-12-20T00:28:57;95383.81;;;7.48;100.00
4590;BME280;2307;48.448;9.216;2023-12-20T00:31:24;95376.56;;;7.43;100.00
4590;BME280;2307;48.448;9.216;2023-12-20T00:33:51;95380.63;;;7.39;100.00
4590;BME280;2307;48.448;9.216;2023-12-20T00:36:18;95386.31;;;7.36;100.00
4590;BME280;2307;48.448;9.216;2023-12-20T00:38:44;95385.75;;;7.34;100.00
4590;BME280;2307;48.448;9.216;2023-12-20T00:41:11;95369.53;;;7.37;100.00
4590;BME280;2307;48.448;9.216;2023-12-20T00:43:37;95374.81;;;7.37;100.00
4590;BME280;2307;48.448;9.216;2023-12-20T00:46:03;95367.72;;;7.38;100.00
4590;BME280;2307;48.448;9.216;2023-12-20T00:48:30;95372.19;;;7.37;100.00
4590;BME280;2307;48.448;9.216;2023-12-20T00:50:57;95359.25;;;7.36;100.00
4590;BME280;2307;48.448;9.216;2023-12-20T00:53:24;95366.53;;;7.34;100.00
4590;BME280;2307;48.448;9.216;2023-12-20T00:55:50;95351.59;;;7.34;100.00
4590;BME280;2307;48.448;9.216;2023-12-20T00:58:17;95354.66;;;7.31;100.00
4590;BME280;2307;48.448;9.216;2023-12-20T01:00:43;95369.03;;;7.29;100.00
4590;BME280;2307;48.448;9.216;2023-12-20T01:03:10;95370.59;;;7.30;100.00
4590;BME280;2307;48.448;9.216;2023-12-20T01:05:37;95352.84;;;7.32;100.00
4590;BME280;2307;48.448;9.216;2023-12-20T01:08:05;95369.75;;;7.36;100.00
4590;BME280;2307;48.448;9.216;2023-12-20T01:10:31;95376.41;;;7.38;100.00
4590;BME280;2307;48.448;9.216;2023-12-20T01:12:58;95378.66;;;7.35;100.00
4590;BME280;2307;48.448;9.216;2023-12-20T01:15:23;95386.56;;;7.35;100.00
4590;BME280;2307;48.448;9.216;2023-12-20T01:17:49;95392.63;;;7.35;100.00
4590;BME280;2307;48.448;9.216;2023-12-20T01:20:16;95386.56;;;7.35;100.00
4590;BME280;2307;48.448;9.216;2023-12-20T01:22:45;95390.41;;;7.32;100.00
4590;BME280;2307;48.448;9.216;2023-12-20T01:25:12;95398.13;;;7.27;100.00
4590;BME280;2307;48.448;9.216;2023-12-20T01:27:39;95392.72;;;7.22;100.00
4590;BME280;2307;48.448;9.216;2023-12-20T01:30:06;95387.59;;;7.27;100.00
4590;BME280;2307;48.448;9.216;2023-12-20T01:32:32;95390.91;;;7.23;100.00
4590;BME280;2307;48.448;9.216;2023-12-20T01:34:59;95397.34;;;7.20;100.00
4590;BME280;2307;48.448;9.216;2023-12-20T01:37:25;95404.84;;;7.17;100.00
4590;BME280;2307;48.448;9.216;2023-12-20T01:39:54;95409.75;;;7.13;100.00
4590;BME280;2307;48.448;9.216;2023-12-20T01:42:22;95414.66;;;7.03;100.00
4590;BME280;2307;48.448;9.216;2023-12-20T01:44:48;95412.47;;;7.00;100.00
4590;BME280;2307;48.448;9.216;2023-12-20T01:47:15;95429.94;;;6.81;100.00
4590;BME280;2307;48.448;9.216;2023-12-20T01:49:41;95444.94;;;6.68;100.00
4590;BME280;2307;48.448;9.216;2023-12-20T01:52:07;95438.13;;;6.54;100.00
4590;BME280;2307;48.448;9.216;2023-12-20T01:54:34;95445.03;;;6.41;100.00
4590;BME280;2307;48.448;9.216;2023-12-20T01:57:01;95441.66;;;6.28;100.00
4590;BME280;2307;48.448;9.216;2023-12-20T01:59:29;95453.19;;;6.20;100.00
4590;BME280;2307;48.448;9.216;2023-12-20T02:01:56;95456.03;;;6.12;100.00
4590;BME280;2307;48.448;9.216;2023-12-20T02:04:23;95446.16;;;6.08;100.00
4590;BME280;2307;48.448;9.216;2023-12-20T02:06:50;95451.59;;;6.06;100.00
4590;BME280;2307;48.448;9.216;2023-12-20T02:09:18;95452.00;;;6.03;100.00
4590;BME280;2307;48.448;9.216;2023-12-20T02:11:44;95450.19;;;6.04;100.00
4590;BME280;2307;48.448;9.216;2023-12-20T02:14:11;95445.53;;;6.06;100.00
4590;BME280;2307;48.448;9.216;2023-12-20T02:16:39;95450.78;;;6.06;100.00
4590;BME280;2307;48.448;9.216;2023-12-20T02:19:05;95447.97;;;6.07;100.00
4590;BME280;2307;48.448;9.216;2023-12-20T02:21:35;95439.91;;;6.09;100.00
4590;BME280;2307;48.448;9.216;2023-12-20T02:24:01;95441.31;;;6.11;100.00
4590;BME280;2307;48.448;9.216;2023-12-20T02:26:27;95448.78;;;6.14;100.00
4590;BME280;2307;48.448;9.216;2023-12-20T02:28:54;95432.81;;;6.16;100.00
4590;BME280;2307;48.448;9.216;2023-12-20T02:31:20;95437.88;;;6.17;100.00
4590;BME280;2307;48.448;9.216;2023-12-20T02:33:47;95436.25;;;6.16;100.00
4590;BME280;2307;48.448;9.216;2023-12-20T02:36:13;95436.06;;;6.18;100.00
4590;BME280;2307;48.448;9.216;2023-12-20T02:38:41;95434.44;;;6.17;100.00
4590;BME280;2307;48.448;9.216;2023-12-20T02:41:07;95431.00;;;6.16;100.00
4590;BME280;2307;48.448;9.216;2023-12-20T02:43:34;95439.28;;;6.13;100.00
4590;BME280;2307;48.448;9.216;2023-12-20T02:46:00;95424.56;;;6.12;100.00
4590;BME280;2307;48.448;9.216;2023-12-20T02:48:27;95432.06;;;6.09;100.00
4590;BME280;2307;48.448;9.216;2023-12-20T02:50:53;95422.16;;;6.11;100.00
4590;BME280;2307;48.448;9.216;2023-12-20T02:53:20;95425.38;;;6.13;100.00
4590;BME280;2307;48.448;9.216;2023-12-20T02:55:48;95424.78;;;6.11;100.00
4590;BME280;2307;48.448;9.216;2023-12-20T02:58:14;95419.31;;;6.12;100.00
4590;BME280;2307;48.448;9.216;2023-12-20T03:00:42;95423.97;;;6.10;100.00
4590;BME280;2307;48.448;9.216;2023-12-20T03:03:09;95423.38;;;6.08;100.00
4590;BME280;2307;48.448;9.216;2023-12-20T03:05:35;95426.19;;;6.13;100.00
4590;BME280;2307;48.448;9.216;2023-12-20T03:08:02;95449.19;;;6.11;100.00
4590;BME280;2307;48.448;9.216;2023-12-20T03:10:28;95428.81;;;6.07;100.00
4590;BME280;2307;48.448;9.216;2023-12-20T03:12:56;95439.13;;;6.08;100.00
4590;BME280;2307;48.448;9.216;2023-12-20T03:15:22;95437.50;;;6.07;100.00
4590;BME280;2307;48.448;9.216;2023-12-20T03:17:48;95432.66;;;6.04;100.00
4590;BME280;2307;48.448;9.216;2023-12-20T03:20:15;95441.34;;;6.05;100.00
4590;BME280;2307;48.448;9.216;2023-12-20T03:22:41;95442.94;;;6.06;100.00
4590;BME280;2307;48.448;9.216;2023-12-20T03:25:08;95431.44;;;6.00;100.00
4590;BME280;2307;48.448;9.216;2023-12-20T03:27:36;95444.78;;;5.99;100.00
4590;BME280;2307;48.448;9.216;2023-12-20T03:30:05;95454.44;;;5.98;100.00
4590;BME280;2307;48.448;9.216;2023-12-20T03:32:31;95452.84;;;5.97;100.00
4590;BME280;2307;48.448;9.216;2023-12-20T03:34:57;95460.28;;;5.94;100.00
4590;BME280;2307;48.448;9.216;2023-12-20T03:37:24;95467.75;;;5.90;100.00
4590;BME280;2307;48.448;9.216;2023-12-20T03:39:50;95482.88;;;5.88;100.00
4590;BME280;2307;48.448;9.216;2023-12-20T03:42:17;95468.53;;;5.84;100.00
4590;BME280;2307;48.448;9.216;2023-12-20T03:44:43;95471.78;;;5.79;100.00
4590;BME280;2307;48.448;9.216;2023-12-20T03:47:11;95478.84;;;5.72;100.00
4590;BME280;2307;48.448;9.216;2023-12-20T03:49:37;95480.66;;;5.72;100.00
4590;BME280;2307;48.448;9.216;2023-12-20T03:52:04;95501.44;;;5.67;100.00
4590;BME280;2307;48.448;9.216;2023-12-20T03:54:30;95498.00;;;5.66;100.00
4590;BME280;2307;48.448;9.216;2023-12-20T03:56:56;95511.28;;;5.65;100.00
4590;BME280;2307;48.448;9.216;2023-12-20T03:59:23;95501.59;;;5.59;100.00
4590;BME280;2307;48.448;9.216;2023-12-20T04:01:49;95518.53;;;5.56;100.00
4590;BME280;2307;48.448;9.216;2023-12-20T04:04:17;95512.69;;;5.54;100.00
4590;BME280;2307;48.448;9.216;2023-12-20T04:06:42;95506.44;;;5.49;100.00
4590;BME280;2307;48.448;9.216;2023-12-20T04:09:09;95517.31;;;5.46;100.00
4590;BME280;2307;48.448;9.216;2023-12-20T04:11:36;95520.53;;;5.41;100.00
4590;BME280;2307;48.448;9.216;2023-12-20T04:14:02;95518.34;;;5.45;100.00
4590;BME280;2307;48.448;9.216;2023-12-20T04:16:29;95531.03;;;5.41;100.00
4590;BME280;2307;48.448;9.216;2023-12-20T04:18:56;95522.75;;;5.38;100.00
4590;BME280;2307;48.448;9.216;2023-12-20T04:21:24;95525.38;;;5.38;100.00
4590;BME280;2307;48.448;9.216;2023-12-20T04:23:50;95535.84;;;5.38;100.00
4590;BME280;2307;48.448;9.216;2023-12-20T04:26:16;95527.78;;;5.32;100.00
4590;BME280;2307;48.448;9.216;2023-12-20T04:28:43;95534.03;;;5.31;100.00
4590;BME280;2307;48.448;9.216;2023-12-20T04:31:09;95531.81;;;5.28;100.00
4590;BME280;2307;48.448;9.216;2023-12-20T04:33:35;95539.66;;;5.28;100.00
4590;BME280;2307;48.448;9.216;2023-12-20T04:36:02;95538.66;;;5.29;100.00
4590;BME280;2307;48.448;9.216;2023-12-20T04:38:31;95536.41;;;5.26;100.00
4590;BME280;2307;48.448;9.216;2023-12-20T04:40:57;95526.97;;;5.25;100.00
4590;BME280;2307;48.448;9.216;2023-12-20T04:43:23;95529.75;;;5.24;100.00
4590;BME280;2307;48.448;9.216;2023-12-20T04:45:50;95519.09;;;5.25;100.00
4590;BME280;2307;48.448;9.216;2023-12-20T04:48:16;95524.13;;;5.20;100.00
4590;BME280;2307;48.448;9.216;2023-12-20T04:50:43;95523.72;;;5.23;100.00
4590;BME280;2307;48.448;9.216;2023-12-20T04:53:09;95534.00;;;5.25;100.00
4590;BME280;2307;48.448;9.216;2023-12-20T04:55:37;95540.25;;;5.24;100.00
4590;BME280;2307;48.448;9.216;2023-12-20T04:58:04;95540.44;;;5.22;100.00
4590;BME280;2307;48.448;9.216;2023-12-20T05:00:30;95543.47;;;5.19;100.00
4590;BME280;2307;48.448;9.216;2023-12-20T05:02:57;95541.03;;;5.18;100.00
4590;BME280;2307;48.448;9.216;2023-12-20T05:05:23;95527.13;;;5.17;100.00
4590;BME280;2307;48.448;9.216;2023-12-20T05:07:49;95543.06;;;5.16;100.00
4590;BME280;2307;48.448;9.216;2023-12-20T05:10:17;95541.44;;;5.15;100.00
4590;BME280;2307;48.448;9.216;2023-12-20T05:12:45;95544.03;;;5.15;100.00
4590;BME280;2307;48.448;9.216;2023-12-20T05:15:11;95546.47;;;5.16;100.00
4590;BME280;2307;48.448;9.216;2023-12-20T05:17:38;95544.25;;;5.13;100.00
4590;BME280;2307;48.448;9.216;2023-12-20T05:20:05;95545.25;;;5.12;100.00
4590;BME280;2307;48.448;9.216;2023-12-20T05:22:31;95560.56;;;5.15;100.00
4590;BME280;2307;48.448;9.216;2023-12-20T05:24:58;95562.19;;;5.16;100.00
4590;BME280;2307;48.448;9.216;2023-12-20T05:27:24;95565.19;;;5.13;100.00
4590;BME280;2307;48.448;9.216;2023-12-20T05:29:52;95552.72;;;5.15;100.00
4590;BME280;2307;48.448;9.216;2023-12-20T05:32:22;95561.38;;;5.16;100.00
4590;BME280;2307;48.448;9.216;2023-12-20T05:34:48;95570.66;;;5.18;100.00
4590;BME280;2307;48.448;9.216;2023-12-20T05:37:15;95560.38;;;5.17;100.00
4590;BME280;2307;48.448;9.216;2023-12-20T05:39:41;95570.66;;;5.18;100.00
4590;BME280;2307;48.448;9.216;2023-12-20T05:42:08;95578.09;;;5.21;100.00
4590;BME280;2307;48.448;9.216;2023-12-20T05:44:34;95578.91;;;5.22;100.00
4590;BME280;2307;48.448;9.216;2023-12-20T05:47:03;95580.72;;;5.21;100.00
4590;BME280;2307;48.448;9.216;2023-12-20T05:49:29;95579.72;;;5.22;100.00
4590;BME280;2307;48.448;9.216;2023-12-20T05:51:56;95575.47;;;5.21;100.00
4590;BME280;2307;48.448;9.216;2023-12-20T05:54:23;95561.41;;;5.22;100.00
4590;BME280;2307;48.448;9.216;2023-12-20T05:56:49;95573.69;;;5.22;100.00
4590;BME280;2307;48.448;9.216;2023-12-20T05:59:16;95578.50;;;5.18;100.00
4590;BME280;2307;48.448;9.216;2023-12-20T06:01:42;95563.59;;;5.19;100.00
4590;BME280;2307;48.448;9.216;2023-12-20T06:04:10;95568.03;;;5.18;100.00
4590;BME280;2307;48.448;9.216;2023-12-20T06:06:40;95581.72;;;5.20;100.00
4590;BME280;2307;48.448;9.216;2023-12-20T06:09:06;95592.19;;;5.20;100.00
4590;BME280;2307;48.448;9.216;2023-12-20T06:11:32;95583.34;;;5.21;100.00
4590;BME280;2307;48.448;9.216;2023-12-20T06:13:59;95594.22;;;5.18;100.00
4590;BME280;2307;48.448;9.216;2023-12-20T06:16:25;95589.78;;;5.19;100.00
4590;BME280;2307;48.448;9.216;2023-12-20T06:18:51;95595.84;;;5.19;100.00
4590;BME280;2307;48.448;9.216;2023-12-20T06:21:19;95597.03;;;5.23;100.00
4590;BME280;2307;48.448;9.216;2023-12-20T06:23:46;95600.69;;;5.29;100.00
4590;BME280;2307;48.448;9.216;2023-12-20T06:26:12;95597.28;;;5.28;100.00
4590;BME280;2307;48.448;9.216;2023-12-20T06:28:39;95595.88;;;5.32;100.00
4590;BME280;2307;48.448;9.216;2023-12-20T06:31:05;95594.25;;;5.31;100.00
4590;BME280;2307;48.448;9.216;2023-12-20T06:33:32;95599.09;;;5.34;100.00
4590;BME280;2307;48.448;9.216;2023-12-20T06:35:58;95597.47;;;5.33;100.00
4590;BME280;2307;48.448;9.216;2023-12-20T06:38:25;95594.66;;;5.35;100.00
4590;BME280;2307;48.448;9.216;2023-12-20T06:40:51;95591.84;;;5.36;100.00
4590;BME280;2307;48.448;9.216;2023-12-20T06:43:18;95595.09;;;5.39;100.00
4590;BME280;2307;48.448;9.216;2023-12-20T06:45:44;95599.72;;;5.43;100.00
4590;BME280;2307;48.448;9.216;2023-12-20T06:48:10;95604.94;;;5.43;100.00
4590;BME280;2307;48.448;9.216;2023-12-20T06:50:38;95603.34;;;5.49;100.00
4590;BME280;2307;48.448;9.216;2023-12-20T06:53:05;95600.72;;;5.49;100.00
4590;BME280;2307;48.448;9.216;2023-12-20T06:55:33;95604.97;;;5.50;100.00
4590;BME280;2307;48.448;9.216;2023-12-20T06:58:03;95605.59;;;5.52;100.00
4590;BME280;2307;48.448;9.216;2023-12-20T07:00:29;95597.75;;;5.52;100.00
4590;BME280;2307;48.448;9.216;2023-12-20T07:02:56;95600.34;;;5.52;100.00
4590;BME280;2307;48.448;9.216;2023-12-20T07:05:22;95609.03;;;5.59;100.00
4590;BME280;2307;48.448;9.216;2023-12-20T07:07:48;95616.06;;;5.58;100.00
4590;BME280;2307;48.448;9.216;2023-12-20T07:10:15;95622.50;;;5.56;100.00
4590;BME280;2307;48.448;9.216;2023-12-20T07:12:42;95616.88;;;5.59;100.00
4590;BME280;2307;48.448;9.216;2023-12-20T07:15:09;95613.25;;;5.60;100.00
4590;BME280;2307;48.448;9.216;2023-12-20T07:17:36;95613.69;;;5.63;100.00
4590;BME280;2307;48.448;9.216;2023-12-20T07:20:02;95624.97;;;5.64;100.00
4590;BME280;2307;48.448;9.216;2023-12-20T07:22:29;95631.63;;;5.66;100.00
4590;BME280;2307;48.448;9.216;2023-12-20T07:24:56;95629.81;;;5.67;100.00
4590;BME280;2307;48.448;9.216;2023-12-20T07:27:23;95627.38;;;5.65;100.00
4590;BME280;2307;48.448;9.216;2023-12-20T07:29:50;95632.84;;;5.64;100.00
4590;BME280;2307;48.448;9.216;2023-12-20T07:32:17;95639.91;;;5.70;100.00
4590;BME280;2307;48.448;9.216;2023-12-20T07:34:43;95632.84;;;5.70;100.00
4590;BME280;2307;48.448;9.216;2023-12-20T07:37:10;95642.31;;;5.71;100.00
4590;BME280;2307;48.448;9.216;2023-12-20T07:39:37;95632.63;;;5.72;100.00
4590;BME280;2307;48.448;9.216;2023-12-20T07:42:03;95640.88;;;5.69;100.00
4590;BME280;2307;48.448;9.216;2023-12-20T07:44:30;95651.97;;;5.71;100.00
4590;BME280;2307;48.448;9.216;2023-12-20T07:46:57;95647.16;;;5.74;100.00
4590;BME280;2307;48.448;9.216;2023-12-20T07:49:24;95657.03;;;5.79;100.00
4590;BME280;2307;48.448;9.216;2023-12-20T07:51:50;95644.53;;;5.81;100.00
4590;BME280;2307;48.448;9.216;2023-12-20T07:54:16;95645.16;;;5.83;100.00
4590;BME280;2307;48.448;9.216;2023-12-20T07:56:43;95654.06;;;5.88;100.00
4590;BME280;2307;48.448;9.216;2023-12-20T07:59:09;95664.13;;;5.85;100.00
4590;BME280;2307;48.448;9.216;2023-12-20T08:01:36;95657.91;;;5.86;100.00
4590;BME280;2307;48.448;9.216;2023-12-20T08:04:04;95663.28;;;5.84;100.00
4590;BME280;2307;48.448;9.216;2023-12-20T08:06:30;95662.06;;;5.80;100.00
4590;BME280;2307;48.448;9.216;2023-12-20T08:08:56;95665.91;;;5.78;100.00
4590;BME280;2307;48.448;9.216;2023-12-20T08:11:23;95670.75;;;5.81;100.00
4590;BME280;2307;48.448;9.216;2023-12-20T08:13:49;95664.56;;;5.88;100.00
4590;BME280;2307;48.448;9.216;2023-12-20T08:16:16;95668.00;;;5.89;100.00
4590;BME280;2307;48.448;9.216;2023-12-20T08:18:42;95668.81;;;5.96;100.00
4590;BME280;2307;48.448;9.216;2023-12-20T08:21:10;95664.56;;;5.95;100.00
4590;BME280;2307;48.448;9.216;2023-12-20T08:23:37;95664.16;;;5.98;100.00
4590;BME280;2307;48.448;9.216;2023-12-20T08:26:03;95666.78;;;5.98;100.00
4590;BME280;2307;48.448;9.216;2023-12-20T08:28:30;95673.25;;;6.02;100.00
4590;BME280;2307;48.448;9.216;2023-12-20T08:30:57;95655.69;;;6.09;100.00
4590;BME280;2307;48.448;9.216;2023-12-20T08:33:23;95665.00;;;6.12;100.00
4590;BME280;2307;48.448;9.216;2023-12-20T08:35:50;95663.78;;;6.14;100.00
4590;BME280;2307;48.448;9.216;2023-12-20T08:38:18;95669.03;;;6.14;100.00
4590;BME280;2307;48.448;9.216;2023-12-20T08:40:44;95671.44;;;6.09;100.00
4590;BME280;2307;48.448;9.216;2023-12-20T08:43:10;95659.75;;;6.12;100.00
4590;BME280;2307;48.448;9.216;2023-12-20T08:45:37;95666.81;;;6.11;100.00
4590;BME280;2307;48.448;9.216;2023-12-20T08:48:04;95659.94;;;6.10;100.00
4590;BME280;2307;48.448;9.216;2023-12-20T08:50:31;95677.06;;;6.06;100.00
4590;BME280;2307;48.448;9.216;2023-12-20T08:52:57;95667.00;;;6.10;100.00
4590;BME280;2307;48.448;9.216;2023-12-20T08:55:25;95681.34;;;6.14;100.00
4590;BME280;2307;48.448;9.216;2023-12-20T08:57:51;95692.81;;;6.19;100.00
4590;BME280;2307;48.448;9.216;2023-12-20T09:00:18;95678.72;;;6.14;100.00
4590;BME280;2307;48.448;9.216;2023-12-20T09:02:45;95687.78;;;6.11;100.00
4590;BME280;2307;48.448;9.216;2023-12-20T09:05:12;95687.16;;;6.09;100.00
4590;BME280;2307;48.448;9.216;2023-12-20T09:07:38;95695.66;;;6.05;100.00
4590;BME280;2307;48.448;9.216;2023-12-20T09:10:05;95690.59;;;6.03;100.00
4590;BME280;2307;48.448;9.216;2023-12-20T09:12:33;95690.41;;;6.05;100.00
4590;BME280;2307;48.448;9.216;2023-12-20T09:14:59;95698.06;;;6.06;100.00
4590;BME280;2307;48.448;9.216;2023-12-20T09:17:27;95697.66;;;6.09;100.00
4590;BME280;2307;48.448;9.216;2023-12-20T09:19:54;95703.31;;;6.13;100.00
4590;BME280;2307;48.448;9.216;2023-12-20T09:22:20;95695.25;;;6.08;100.00
4590;BME280;2307;48.448;9.216;2023-12-20T09:24:46;95697.06;;;6.07;100.00
4590;BME280;2307;48.448;9.216;2023-12-20T09:27:13;95697.63;;;6.03;100.00
4590;BME280;2307;48.448;9.216;2023-12-20T09:29:41;95706.50;;;5.95;100.00
4590;BME280;2307;48.448;9.216;2023-12-20T09:32:07;95700.44;;;5.88;100.00
4590;BME280;2307;48.448;9.216;2023-12-20T09:34:33;95714.50;;;5.80;100.00
4590;BME280;2307;48.448;9.216;2023-12-20T09:37:00;95743.69;;;5.64;100.00
4590;BME280;2307;48.448;9.216;2023-12-20T09:39:28;95731.69;;;5.42;100.00
4590;BME280;2307;48.448;9.216;2023-12-20T09:41:59;95739.09;;;5.32;100.00
4590;BME280;2307;48.448;9.216;2023-12-20T09:44:26;95740.34;;;5.08;100.00
4590;BME280;2307;48.448;9.216;2023-12-20T09:46:54;95742.66;;;4.90;100.00
4590;BME280;2307;48.448;9.216;2023-12-20T09:49:21;95743.03;;;4.87;100.00
4590;BME280;2307;48.448;9.216;2023-12-20T09:51:48;95748.78;;;4.76;100.00
4590;BME280;2307;48.448;9.216;2023-12-20T09:54:16;95746.16;;;4.76;100.00
4590;BME280;2307;48.448;9.216;2023-12-20T09:56:43;95761.47;;;4.72;100.00
4590;BME280;2307;48.448;9.216;2023-12-20T09:59:10;95759.84;;;4.71;100.00
4590;BME280;2307;48.448;9.216;2023-12-20T10:01:36;95760.00;;;4.70;100.00
4590;BME280;2307;48.448;9.216;2023-12-20T10:04:06;95758.63;;;4.74;100.00
4590;BME280;2307;48.448;9.216;2023-12-20T10:06:34;95760.69;;;4.78;100.00
4590;BME280;2307;48.448;9.216;2023-12-20T10:09:00;95764.34;;;4.84;100.00
4590;BME280;2307;48.448;9.216;2023-12-20T10:11:27;95764.47;;;4.97;100.00
4590;BME280;2307;48.448;9.216;2023-12-20T10:13:58;95765.72;;;5.08;100.00
4590;BME280;2307;48.448;9.216;2023-12-20T10:16:24;95754.88;;;5.11;100.00
4590;BME280;2307;48.448;9.216;2023-12-20T10:18:52;95767.34;;;5.09;100.00
4590;BME280;2307;48.448;9.216;2023-12-20T10:21:20;95766.06;;;4.98;100.00
4590;BME280;2307;48.448;9.216;2023-12-20T10:23:46;95772.53;;;5.02;100.00
4590;BME280;2307;48.448;9.216;2023-12-20T10:26:18;95770.56;;;5.11;100.00
4590;BME280;2307;48.448;9.216;2023-12-20T10:28:45;95770.63;;;5.17;100.00
4590;BME280;2307;48.448;9.216;2023-12-20T10:31:15;95764.59;;;5.23;100.00
4590;BME280;2307;48.448;9.216;2023-12-20T10:33:51;95754.75;;;5.25;100.00
4590;BME280;2307;48.448;9.216;2023-12-20T10:36:18;95741.22;;;5.15;100.00
4590;BME280;2307;48.448;9.216;2023-12-20T10:38:45;95749.66;;;5.17;100.00
4590;BME280;2307;48.448;9.216;2023-12-20T10:41:12;95742.88;;;5.23;100.00
4590;BME280;2307;48.448;9.216;2023-12-20T10:43:42;95729.94;;;5.15;100.00
4590;BME280;2307;48.448;9.216;2023-12-20T10:46:09;95736.09;;;5.01;100.00
4590;BME280;2307;48.448;9.216;2023-12-20T10:48:35;95730.91;;;5.07;100.00
4590;BME280;2307;48.448;9.216;2023-12-20T10:51:02;95722.66;;;5.10;100.00
4590;BME280;2307;48.448;9.216;2023-12-20T10:53:30;95722.66;;;5.10;100.00
4590;BME280;2307;48.448;9.216;2023-12-20T10:55:58;95718.97;;;5.05;100.00
4590;BME280;2307;48.448;9.216;2023-12-20T10:58:26;95712.16;;;5.04;100.00
4590;BME280;2307;48.448;9.216;2023-12-20T11:00:54;95707.34;;;5.07;100.00
4590;BME280;2307;48.448;9.216;2023-12-20T11:03:23;95707.34;;;5.14;100.00
4590;BME280;2307;48.448;9.216;2023-12-20T11:05:53;95698.94;;;5.18;100.00
4590;BME280;2307;48.448;9.216;2023-12-20T11:08:26;95707.63;;;5.25;100.00
4590;BME280;2307;48.448;9.216;2023-12-20T11:10:55;95695.34;;;5.26;100.00
4590;BME280;2307;48.448;9.216;2023-12-20T11:13:26;95697.16;;;5.25;100.00
4590;BME280;2307;48.448;9.216;2023-12-20T11:15:54;95696.53;;;5.23;100.00
4590;BME280;2307;48.448;9.216;2023-12-20T11:18:20;95682.34;;;5.05;100.00
4590;BME280;2307;48.448;9.216;2023-12-20T11:20:54;95679.13;;;5.03;100.00
4590;BME280;2307;48.448;9.216;2023-12-20T11:23:20;95677.34;;;5.10;100.00
4590;BME280;2307;48.448;9.216;2023-12-20T11:25:48;95681.00;;;5.15;100.00
4590;BME280;2307;48.448;9.216;2023-12-20T11:28:14;95688.66;;;5.23;100.00
4590;BME280;2307;48.448;9.216;2023-12-20T11:30:48;95676.81;;;5.27;100.00
4590;BME280;2307;48.448;9.216;2023-12-20T11:33:15;95680.44;;;5.26;100.00
4590;BME280;2307;48.448;9.216;2023-12-20T11:35:42;95671.97;;;5.24;100.00
4590;BME280;2307;48.448;9.216;2023-12-20T11:38:09;95670.72;;;5.20;100.00
4590;BME280;2307;48.448;9.216;2023-12-20T11:40:35;95669.34;;;5.24;100.00
4590;BME280;2307;48.448;9.216;2023-12-20T11:43:02;95664.91;;;5.18;100.00
4590;BME280;2307;48.448;9.216;2023-12-20T11:45:29;95665.50;;;5.20;100.00
4590;BME280;2307;48.448;9.216;2023-12-20T11:47:57;95670.34;;;5.23;100.00
4590;BME280;2307;48.448;9.216;2023-12-20T11:50:24;95658.06;;;5.24;100.00
4590;BME280;2307;48.448;9.216;2023-12-20T11:52:51;95655.66;;;5.22;100.00
4590;BME280;2307;48.448;9.216;2023-12-20T11:55:18;95672.41;;;5.34;100.00
4590;BME280;2307;48.448;9.216;2023-12-20T11:57:45;95649.06;;;5.40;100.00
4590;BME280;2307;48.448;9.216;2023-12-20T12:00:12;95658.16;;;5.50;100.00
4590;BME280;2307;48.448;9.216;2023-12-20T12:02:39;95646.09;;;5.56;100.00
4590;BME280;2307;48.448;9.216;2023-12-20T12:05:08;95644.88;;;5.58;100.00
4590;BME280;2307;48.448;9.216;2023-12-20T12:07:34;95659.22;;;5.69;100.00
4590;BME280;2307;48.448;9.216;2023-12-20T12:10:01;95633.81;;;5.56;100.00
4590;BME280;2307;48.448;9.216;2023-12-20T12:12:28;95640.66;;;5.51;100.00
4590;BME280;2307;48.448;9.216;2023-12-20T12:14:55;95649.50;;;5.50;100.00
4590;BME280;2307;48.448;9.216;2023-12-20T12:17:22;95645.47;;;5.47;100.00
4590;BME280;2307;48.448;9.216;2023-12-20T12:19:49;95645.88;;;5.44;100.00
4590;BME280;2307;48.448;9.216;2023-12-20T12:22:17;95629.72;;;5.41;100.00
4590;BME280;2307;48.448;9.216;2023-12-20T12:24:45;95633.16;;;5.41;100.00
4590;BME280;2307;48.448;9.216;2023-12-20T12:27:12;95650.09;;;5.39;100.00
4590;BME280;2307;48.448;9.216;2023-12-20T12:29:39;95637.78;;;5.39;100.00
4590;BME280;2307;48.448;9.216;2023-12-20T12:32:05;95637.97;;;5.38;100.00
4590;BME280;2307;48.448;9.216;2023-12-20T12:34:32;95634.13;;;5.33;100.00
4590;BME280;2307;48.448;9.216;2023-12-20T12:36:59;95636.16;;;5.31;100.00
4590;BME280;2307;48.448;9.216;2023-12-20T12:39:26;95636.56;;;5.35;100.00
4590;BME280;2307;48.448;9.216;2023-12-20T12:41:54;95634.13;;;5.33;100.00
4590;BME280;2307;48.448;9.216;2023-12-20T12:44:21;95631.50;;;5.33;100.00
4590;BME280;2307;48.448;9.216;2023-12-20T12:46:48;95636.34;;;5.36;100.00
4590;BME280;2307;48.448;9.216;2023-12-20T12:49:16;95636.59;;;5.42;100.00
4590;BME280;2307;48.448;9.216;2023-12-20T12:51:42;95619.66;;;5.38;100.00
4590;BME280;2307;48.448;9.216;2023-12-20T12:54:09;95644.06;;;5.45;100.00
4590;BME280;2307;48.448;9.216;2023-12-20T12:56:39;95643.28;;;5.51;100.00
4590;BME280;2307;48.448;9.216;2023-12-20T12:59:05;95638.22;;;5.56;100.00
4590;BME280;2307;48.448;9.216;2023-12-20T13:01:32;95638.22;;;5.56;100.00
4590;BME280;2307;48.448;9.216;2023-12-20T13:03:58;95628.16;;;5.53;100.00
4590;BME280;2307;48.448;9.216;2023-12-20T13:06:26;95626.56;;;5.52;100.00
4590;BME280;2307;48.448;9.216;2023-12-20T13:08:53;95625.31;;;5.48;100.00
4590;BME280;2307;48.448;9.216;2023-12-20T13:11:20;95634.75;;;5.35;100.00
4590;BME280;2307;48.448;9.216;2023-12-20T13:13:48;95626.09;;;5.35;100.00
4590;BME280;2307;48.448;9.216;2023-12-20T13:16:14;95620.47;;;5.38;100.00
4590;BME280;2307;48.448;9.216;2023-12-20T13:18:40;95621.69;;;5.42;100.00
4590;BME280;2307;48.448;9.216;2023-12-20T13:21:07;95616.06;;;5.45;100.00